Paramaribo, Suriname

11:25 AM SRT op 25 april 2015 (GMT -0300)
Zorg En Hoop | | Change Station
CLOSE
Current Station
Luchthaven
Location: Paramaribo,
Geometrische hoogte: 33 ft
Nabije weerstations

Hoogte 33 ft 5.81 °N, 55.19 °W | Updated 25 minutes ago

Mostly Cloudy
Merendeels bewolkt
84 °F
Voelt als 92 °F
N
7
Wind Variabel Wind van oost

Vandaag
Hoog -- | Laag -- °F
--% Kans op neerslag
Gisteren
Hoog -- | Laag -- °F
Precip. -- inches
6:29 AM 6:47 PM
Wassende halvemaan, 46% visible
Druk 30.01 inches
Zicht 6.2 mijlen
Wolken Gering 2000 ft
Merendeels bewolkt 2000 ft
Warmteindex 92 °F
Dauwpunt 75 °F
Vochtigheid 74%
Neerslag 0.00 inches
Dikte sneeuw Niet beschikbaar.
UV 8 van de 12
Pollen Niet beschikbaar.
Luchtkwaliteit Niet beschikbaar.
Flu Activity Niet beschikbaar.
METAR SMZO 251400Z 09006KT 9999 FEW020TCU BKN020 29/24 Q1016 NOSIG

More Conditions Fewer Conditions

Druk 30.01 inches
Zicht 6.2 mijlen
Wolken Gering 2000 ft
Merendeels bewolkt 2000 ft
Warmteindex 92 °F
Dauwpunt 75 °F
Vochtigheid 74%
Neerslag 0.00 inches
Dikte sneeuw Niet beschikbaar.
UV 8 van de 12
Pollen Niet beschikbaar.
Luchtkwaliteit Niet beschikbaar.
Flu Activity Niet beschikbaar.
METAR SMZO 251400Z 09006KT 9999 FEW020TCU BKN020 29/24 Q1016 NOSIG

More Conditions Fewer Conditions

10-Day Weather Forecast

Almanac

Astronomie

Apr. 25, 2015 Opkomst Ondergang
Werkelijke tijd
Burgerlijke schemering
Nautische schemering
Astronomische schemering
Maan
Golflengte van het zichtbare licht
Daglengte
Tomorrow will be .
, % of the Moon is Illuminated

Extremen vandaag

Country Highs Country Lows

Community

WunderPhotos

Upload Photos

1,816,686 foto’s ge-upload!

WunderBlogs® & News

Nearby

Luchtkwaliteit

  Luchtkwaliteit LK-index Verontreinigende stof
Not available.

Dikte sneeuw

Station Depth Geometrische hoogte

Aardbevingen

Stad Distance Mag. Time & Date
Minimum magnitude displayed is 2.5.

Watertemperatuur langs de kust

Plaats Temperatuur

Stations

Nabije weerstations

Locatie station Temp. Gevoelstemperatuur Dauwpunt Vochtigheid Wind Precip. Hoogte Geactualiseerd Type